createdAt,value
2019-05-01T00:01:23.431Z,35.57
2019-05-01T00:04:08.631Z,37.33
2019-05-01T00:06:42.351Z,37.57
2019-05-01T00:09:13.734Z,34.73
2019-05-01T00:11:44.105Z,33.60
2019-05-01T00:14:14.546Z,31.23
2019-05-01T00:16:44.917Z,33.37
2019-05-01T00:19:15.153Z,37.93
2019-05-01T00:21:45.569Z,41.43
2019-05-01T00:24:15.713Z,36.30
2019-05-01T00:26:46.009Z,36.73
2019-05-01T00:29:16.256Z,37.50
2019-05-01T00:31:46.598Z,32.63
2019-05-01T00:34:16.862Z,35.07
2019-05-01T00:36:47.182Z,33.93
2019-05-01T00:39:18.618Z,31.77
2019-05-01T00:41:48.817Z,34.63
2019-05-01T00:44:19.006Z,36.57
2019-05-01T00:46:49.193Z,37.17
2019-05-01T00:49:19.347Z,34.77
2019-05-01T00:51:49.432Z,39.13
2019-05-01T00:54:19.582Z,38.63
2019-05-01T00:56:59.397Z,37.17
2019-05-01T00:59:40.842Z,39.07
2019-05-01T01:02:21.809Z,36.90
2019-05-01T01:04:52.032Z,34.90
2019-05-01T01:07:23.237Z,40.30
2019-05-01T01:09:53.422Z,36.67
2019-05-01T01:12:23.642Z,40.00
2019-05-01T01:14:53.792Z,36.73
2019-05-01T01:17:23.986Z,36.27
2019-05-01T01:19:54.174Z,34.73
2019-05-01T01:22:24.279Z,36.47
2019-05-01T01:24:54.802Z,30.33
2019-05-01T01:27:25.798Z,31.47
2019-05-01T01:29:56.049Z,44.67
2019-05-01T01:32:26.139Z,54.60
2019-05-01T01:34:56.319Z,33.17
2019-05-01T01:37:27.395Z,34.67
2019-05-01T01:39:57.946Z,31.63
2019-05-01T01:42:29.076Z,33.13
2019-05-01T01:45:05.267Z,31.70
2019-05-01T01:47:36.954Z,34.47
2019-05-01T01:50:07.819Z,35.00
2019-05-01T01:52:38.086Z,36.93
2019-05-01T01:55:08.241Z,34.23
2019-05-01T01:57:38.429Z,31.57
2019-05-01T02:00:10.286Z,33.70
2019-05-01T02:02:52.886Z,33.60
2019-05-01T02:05:29.493Z,39.50
2019-05-01T02:07:59.862Z,36.10
2019-05-01T02:10:42.272Z,33.33
2019-05-01T02:13:02.390Z,33.47
2019-05-01T02:15:32.570Z,29.03
2019-05-01T02:18:02.767Z,27.17
2019-05-01T02:20:32.894Z,31.97
2019-05-01T02:23:03.094Z,29.13
2019-05-01T02:25:35.309Z,25.07
2019-05-01T02:28:33.526Z,27.53
2019-05-01T02:31:29.350Z,24.90
2019-05-01T02:33:56.535Z,24.07
2019-05-01T02:36:28.824Z,26.53
2019-05-01T02:39:00.057Z,20.60
2019-05-01T02:41:34.881Z,23.17
2019-05-01T02:44:13.048Z,21.93
2019-05-01T02:46:45.197Z,23.57
2019-05-01T02:49:25.558Z,26.63
2019-05-01T02:51:56.757Z,25.00
2019-05-01T02:54:27.080Z,22.53
2019-05-01T02:57:02.071Z,23.27
2019-05-01T02:59:34.768Z,24.67
2019-05-01T03:02:04.951Z,25.40
2019-05-01T03:04:35.508Z,24.63
2019-05-01T03:07:06.106Z,22.20
2019-05-01T03:09:36.362Z,23.00
2019-05-01T03:12:08.390Z,21.93
2019-05-01T03:14:41.706Z,25.30
2019-05-01T03:17:30.259Z,26.07
2019-05-01T03:20:08.624Z,22.03
2019-05-01T03:22:51.312Z,22.63
2019-05-01T03:25:21.891Z,21.70
2019-05-01T03:27:52.448Z,22.00
2019-05-01T03:30:23.741Z,19.87
2019-05-01T03:32:54.061Z,25.33
2019-05-01T03:35:24.615Z,25.53
2019-05-01T03:37:54.867Z,21.77
2019-05-01T03:40:25.082Z,21.80
2019-05-01T03:42:55.419Z,31.97
2019-05-01T03:45:26.419Z,23.07
2019-05-01T03:47:59.778Z,24.70
2019-05-01T03:50:30.120Z,22.47
2019-05-01T03:53:01.414Z,22.17
2019-05-01T03:55:31.829Z,23.07
2019-05-01T03:58:02.230Z,20.97
2019-05-01T04:00:55.874Z,20.20
2019-05-01T04:03:35.663Z,19.60
2019-05-01T04:06:06.234Z,18.80
2019-05-01T04:08:36.986Z,20.57
2019-05-01T04:11:07.450Z,17.43
2019-05-01T04:13:37.996Z,16.37
2019-05-01T04:16:08.920Z,17.70
2019-05-01T04:18:39.867Z,22.07
2019-05-01T04:21:10.610Z,20.57
2019-05-01T04:23:42.942Z,24.93
2019-05-01T04:26:13.841Z,14.37
2019-05-01T04:29:02.856Z,15.27
2019-05-01T04:31:46.466Z,19.27
2019-05-01T04:34:25.422Z,17.67
2019-05-01T04:36:57.943Z,15.90
2019-05-01T04:39:28.541Z,18.20
2019-05-01T04:41:58.729Z,18.50
2019-05-01T04:44:29.147Z,18.07
2019-05-01T04:46:59.326Z,16.93
2019-05-01T04:49:30.062Z,15.23
2019-05-01T04:52:00.216Z,16.30
2019-05-01T04:54:30.614Z,15.97
2019-05-01T04:57:00.854Z,11.93
2019-05-01T04:59:31.011Z,16.87
2019-05-01T05:02:03.564Z,11.93
2019-05-01T05:04:35.176Z,19.60
2019-05-01T05:07:05.994Z,12.10
2019-05-01T05:09:44.757Z,9.50
2019-05-01T05:12:28.498Z,11.23
2019-05-01T05:15:03.816Z,11.07
2019-05-01T05:17:34.232Z,11.40
2019-05-01T05:20:05.814Z,12.97
2019-05-01T05:22:36.057Z,12.97
2019-05-01T05:25:06.502Z,13.17
2019-05-01T05:27:37.577Z,10.83
2019-05-01T05:30:07.724Z,9.27
2019-05-01T05:32:40.440Z,13.20
2019-05-01T05:35:13.674Z,15.33
2019-05-01T05:38:04.321Z,14.97
2019-05-01T05:40:36.221Z,14.57
2019-05-01T05:43:06.946Z,14.10
2019-05-01T05:45:37.254Z,13.23
2019-05-01T05:48:07.709Z,11.90
2019-05-01T05:50:48.782Z,12.60
2019-05-01T05:53:22.815Z,16.03
2019-05-01T05:55:55.865Z,10.53
2019-05-01T05:58:33.410Z,12.27
2019-05-01T06:01:43.667Z,13.63
2019-05-01T06:04:34.690Z,15.63
2019-05-01T06:07:22.221Z,18.00
2019-05-01T06:10:12.993Z,13.30
2019-05-01T06:13:21.571Z,17.00
2019-05-01T06:15:56.928Z,10.50
2019-05-01T06:18:48.881Z,10.40
2019-05-01T06:21:28.365Z,14.00
2019-05-01T06:24:16.435Z,11.17
2019-05-01T06:26:47.091Z,13.50
2019-05-01T06:29:17.478Z,12.27
2019-05-01T06:31:47.650Z,9.97
2019-05-01T06:34:17.817Z,11.10
2019-05-01T06:36:49.641Z,11.10
2019-05-01T06:39:19.893Z,14.43
2019-05-01T06:41:50.110Z,13.60
2019-05-01T06:44:33.409Z,11.77
2019-05-01T06:47:43.031Z,13.33
2019-05-01T06:50:31.836Z,9.53
2019-05-01T06:53:04.647Z,8.80
2019-05-01T06:55:35.179Z,13.90
2019-05-01T06:58:06.072Z,10.23
2019-05-01T07:00:42.658Z,12.67
2019-05-01T07:03:11.726Z,12.47
2019-05-01T07:05:44.650Z,11.30
2019-05-01T07:08:24.392Z,14.43
2019-05-01T07:10:47.829Z,9.03
2019-05-01T07:13:18.380Z,13.43
2019-05-01T07:15:48.705Z,10.50
2019-05-01T07:18:24.103Z,9.93
2019-05-01T07:20:53.490Z,15.77
2019-05-01T07:23:24.794Z,14.07
2019-05-01T07:25:55.253Z,14.43
2019-05-01T07:28:28.832Z,20.73
2019-05-01T07:31:04.883Z,11.83
2019-05-01T07:33:35.303Z,12.03
2019-05-01T07:36:14.982Z,9.80
2019-05-01T07:38:40.543Z,11.40
2019-05-01T07:41:12.490Z,11.90
2019-05-01T07:44:08.221Z,10.33
2019-05-01T07:46:48.805Z,10.90
2019-05-01T07:49:25.411Z,12.73
2019-05-01T07:51:55.574Z,11.57
2019-05-01T07:54:25.842Z,11.07
2019-05-01T07:56:58.635Z,14.00
2019-05-01T07:59:28.777Z,15.53
2019-05-01T08:02:02.602Z,8.23
2019-05-01T08:04:36.678Z,11.93
2019-05-01T08:07:04.657Z,10.43
2019-05-01T08:09:34.935Z,14.77
2019-05-01T08:12:05.349Z,12.73
2019-05-01T08:14:35.546Z,14.43
2019-05-01T08:17:06.002Z,16.77
2019-05-01T08:19:50.263Z,11.50
2019-05-01T08:22:22.894Z,12.60
2019-05-01T08:24:53.805Z,13.37
2019-05-01T08:27:43.617Z,14.07
2019-05-01T08:30:26.559Z,9.33
2019-05-01T08:33:21.737Z,13.97
2019-05-01T08:35:52.032Z,12.40
2019-05-01T08:38:22.243Z,12.93
2019-05-01T08:40:55.570Z,12.70
2019-05-01T08:43:24.494Z,13.23
2019-05-01T08:46:11.929Z,18.57
2019-05-01T08:48:47.437Z,12.30
2019-05-01T08:51:17.668Z,13.90
2019-05-01T08:53:47.885Z,8.63
2019-05-01T08:56:21.918Z,9.43
2019-05-01T08:58:50.582Z,10.37
2019-05-01T09:01:20.851Z,9.97
2019-05-01T09:03:54.190Z,11.97
2019-05-01T09:06:34.272Z,10.40
2019-05-01T09:08:54.958Z,13.03
2019-05-01T09:11:26.234Z,10.33
2019-05-01T09:13:58.927Z,15.00
2019-05-01T09:16:31.601Z,14.13
2019-05-01T09:19:04.840Z,19.83
2019-05-01T09:21:37.824Z,13.50
2019-05-01T09:24:07.269Z,7.60
2019-05-01T09:26:45.329Z,17.10
2019-05-01T09:29:18.796Z,9.10
2019-05-01T09:31:49.658Z,10.50
2019-05-01T09:34:21.054Z,18.37
2019-05-01T09:36:51.450Z,13.67
2019-05-01T09:39:23.458Z,8.77
2019-05-01T09:41:53.707Z,12.47
2019-05-01T09:44:23.923Z,11.83
2019-05-01T09:46:54.034Z,15.73
2019-05-01T09:49:24.372Z,10.20
2019-05-01T09:52:12.423Z,8.97
2019-05-01T09:54:52.222Z,13.20
2019-05-01T09:57:22.358Z,11.80
2019-05-01T09:59:52.586Z,6.47
2019-05-01T10:02:22.863Z,11.37
2019-05-01T10:04:53.153Z,11.80
2019-05-01T10:07:28.840Z,13.53
2019-05-01T10:09:56.410Z,14.73
2019-05-01T10:12:26.678Z,10.97
2019-05-01T10:14:57.139Z,12.10
2019-05-01T10:17:27.378Z,12.40
2019-05-01T10:19:57.781Z,12.97
2019-05-01T10:22:27.970Z,11.80
2019-05-01T10:24:58.211Z,8.67
2019-05-01T10:27:30.941Z,9.47
2019-05-01T10:30:36.251Z,12.90
2019-05-01T10:33:08.153Z,12.10
2019-05-01T10:36:18.964Z,7.27
2019-05-01T10:38:47.695Z,10.37
2019-05-01T10:41:17.934Z,12.93
2019-05-01T10:43:48.152Z,9.53
2019-05-01T10:46:18.338Z,7.40
2019-05-01T10:48:48.591Z,7.90
2019-05-01T10:51:18.758Z,9.37
2019-05-01T10:53:49.009Z,15.33
2019-05-01T10:56:19.198Z,8.27
2019-05-01T10:58:49.469Z,9.63
2019-05-01T11:01:47.733Z,10.07
2019-05-01T11:04:18.074Z,7.43
2019-05-01T11:06:48.387Z,8.93
2019-05-01T11:09:18.569Z,10.67
2019-05-01T11:11:48.718Z,9.90
2019-05-01T11:14:19.014Z,11.17
2019-05-01T11:16:49.165Z,11.03
2019-05-01T11:19:19.467Z,9.93
2019-05-01T11:21:49.750Z,7.57
2019-05-01T11:24:20.031Z,17.63
2019-05-01T11:26:50.334Z,19.27
2019-05-01T11:29:20.583Z,25.60
2019-05-01T11:32:07.387Z,9.87
2019-05-01T11:35:02.550Z,21.20
2019-05-01T11:37:51.765Z,15.37
2019-05-01T11:40:50.061Z,48.97
2019-05-01T11:43:20.386Z,26.23
2019-05-01T11:45:50.621Z,10.77
2019-05-01T11:48:25.078Z,24.50
2019-05-01T11:50:53.678Z,18.37
2019-05-01T11:53:24.849Z,8.70
2019-05-01T11:55:55.258Z,8.87
2019-05-01T11:58:25.920Z,16.73
2019-05-01T12:00:57.839Z,19.90
2019-05-01T12:03:28.062Z,11.83
2019-05-01T12:05:58.378Z,10.10
2019-05-01T12:08:28.565Z,12.33
2019-05-01T12:10:59.137Z,14.27
2019-05-01T12:13:29.289Z,12.53
2019-05-01T12:16:06.233Z,14.37
2019-05-01T12:18:36.422Z,23.50
2019-05-01T12:21:07.618Z,39.90
2019-05-01T12:23:37.852Z,22.80
2019-05-01T12:26:08.098Z,11.93
2019-05-01T12:28:38.245Z,8.67
2019-05-01T12:31:08.379Z,11.77
2019-05-01T12:33:38.598Z,10.27
2019-05-01T12:36:09.390Z,9.40
2019-05-01T12:38:39.534Z,11.43
2019-05-01T12:41:36.930Z,6.10
2019-05-01T12:44:07.056Z,11.03
2019-05-01T12:46:54.992Z,16.53
2019-05-01T12:49:25.328Z,9.87
2019-05-01T12:52:09.883Z,12.80
2019-05-01T12:54:58.507Z,9.87
2019-05-01T12:57:28.804Z,10.63
2019-05-01T13:00:08.581Z,6.20
2019-05-01T13:02:30.846Z,9.27
2019-05-01T13:05:01.154Z,15.83
2019-05-01T13:07:31.611Z,13.13
2019-05-01T13:10:02.336Z,5.27
2019-05-01T13:12:32.639Z,9.60
2019-05-01T13:15:02.822Z,13.20
2019-05-01T13:17:33.123Z,9.17
2019-05-01T13:20:03.364Z,10.00
2019-05-01T13:22:33.609Z,7.17
2019-05-01T13:25:03.994Z,6.80
2019-05-01T13:27:41.376Z,10.83
2019-05-01T13:30:28.206Z,11.67
2019-05-01T13:32:58.335Z,14.00
2019-05-01T13:35:30.559Z,7.20
2019-05-01T13:38:00.265Z,16.37
2019-05-01T13:40:30.599Z,9.73
2019-05-01T13:43:00.847Z,16.60
2019-05-01T13:45:31.020Z,6.80
2019-05-01T13:48:01.196Z,6.73
2019-05-01T13:50:31.597Z,8.33
2019-05-01T13:53:01.766Z,14.43
2019-05-01T13:55:32.034Z,13.40
2019-05-01T13:58:02.293Z,10.77
2019-05-01T14:00:33.607Z,12.20
2019-05-01T14:03:03.759Z,7.07
2019-05-01T14:05:33.975Z,6.83
2019-05-01T14:08:04.165Z,14.87
2019-05-01T14:10:34.346Z,5.70
2019-05-01T14:13:04.627Z,7.13
2019-05-01T14:15:35.149Z,9.30
2019-05-01T14:18:05.425Z,9.90
2019-05-01T14:20:43.158Z,7.17
2019-05-01T14:23:31.810Z,5.63
2019-05-01T14:26:06.021Z,6.07
2019-05-01T14:28:36.443Z,7.07
2019-05-01T14:31:07.090Z,13.87
2019-05-01T14:33:37.362Z,7.23
2019-05-01T14:36:07.541Z,9.97
2019-05-01T14:38:37.932Z,4.97
2019-05-01T14:41:08.201Z,7.40
2019-05-01T14:43:38.437Z,6.20
2019-05-01T14:46:08.593Z,9.40
2019-05-01T14:48:38.923Z,5.97
2019-05-01T14:51:09.153Z,9.67
2019-05-01T14:53:39.366Z,21.07
2019-05-01T14:56:09.631Z,9.87
2019-05-01T14:58:39.882Z,7.13
2019-05-01T15:01:10.482Z,7.80
2019-05-01T15:03:40.657Z,10.07
2019-05-01T15:06:10.815Z,8.77
2019-05-01T15:08:41.041Z,5.70
2019-05-01T15:11:11.218Z,9.63
2019-05-01T15:14:01.866Z,11.90
2019-05-01T15:16:51.116Z,8.77
2019-05-01T15:19:23.486Z,16.00
2019-05-01T15:21:53.790Z,10.07
2019-05-01T15:24:24.018Z,7.97
2019-05-01T15:26:54.218Z,13.53
2019-05-01T15:29:24.409Z,12.10
2019-05-01T15:31:54.614Z,9.87
2019-05-01T15:34:24.978Z,8.13
2019-05-01T15:36:55.202Z,6.80
2019-05-01T15:39:33.586Z,8.73
2019-05-01T15:42:21.266Z,8.63
2019-05-01T15:44:51.485Z,10.53
2019-05-01T15:47:21.627Z,12.17
2019-05-01T15:49:51.885Z,9.10
2019-05-01T15:52:22.055Z,7.93
2019-05-01T15:54:52.295Z,8.17
2019-05-01T15:57:22.434Z,12.23
2019-05-01T15:59:52.619Z,13.97
2019-05-01T16:02:22.859Z,10.30
2019-05-01T16:04:53.099Z,12.17
2019-05-01T16:07:23.258Z,14.80
2019-05-01T16:09:53.425Z,12.83
2019-05-01T16:12:48.591Z,6.60
2019-05-01T16:15:25.544Z,9.07
2019-05-01T16:17:55.682Z,9.87
2019-05-01T16:20:25.821Z,14.40
2019-05-01T16:22:55.993Z,11.50
2019-05-01T16:25:27.241Z,10.20
2019-05-01T16:27:57.624Z,10.43
2019-05-01T16:30:27.935Z,10.80
2019-05-01T16:32:58.141Z,10.23
2019-05-01T16:35:29.407Z,6.60
2019-05-01T16:38:01.635Z,10.60
2019-05-01T16:40:54.860Z,11.30
2019-05-01T16:43:25.070Z,11.77
2019-05-01T16:45:55.327Z,15.60
2019-05-01T16:48:25.503Z,10.33
2019-05-01T16:50:55.761Z,14.40
2019-05-01T16:53:26.300Z,13.37
2019-05-01T16:55:56.476Z,14.87
2019-05-01T16:58:26.989Z,13.37
2019-05-01T17:01:04.667Z,9.90
2019-05-01T17:03:53.966Z,11.90
2019-05-01T17:06:52.142Z,12.03
2019-05-01T17:09:53.643Z,11.60
2019-05-01T17:12:27.829Z,15.23
2019-05-01T17:14:58.065Z,15.63
2019-05-01T17:17:28.425Z,12.33
2019-05-01T17:19:59.562Z,14.10
2019-05-01T17:22:29.732Z,13.57
2019-05-01T17:24:59.909Z,11.20
2019-05-01T17:27:30.171Z,9.57
2019-05-01T17:30:00.378Z,10.70
2019-05-01T17:32:30.635Z,11.23
2019-05-01T17:35:02.059Z,11.60
2019-05-01T17:37:32.782Z,14.00
2019-05-01T17:40:02.950Z,13.50
2019-05-01T17:42:37.682Z,14.70
2019-05-01T17:45:05.510Z,9.73
2019-05-01T17:47:36.570Z,9.83
2019-05-01T17:50:08.230Z,13.43
2019-05-01T17:52:38.437Z,10.53
2019-05-01T17:55:09.311Z,14.80
2019-05-01T17:57:39.589Z,15.40
2019-05-01T18:00:28.186Z,11.40
2019-05-01T18:03:05.440Z,19.47
2019-05-01T18:05:45.846Z,15.17
2019-05-01T18:08:16.221Z,15.73
2019-05-01T18:10:46.463Z,16.80
2019-05-01T18:13:16.716Z,20.17
2019-05-01T18:15:47.132Z,17.23
2019-05-01T18:18:17.313Z,16.40
2019-05-01T18:20:47.722Z,20.97
2019-05-01T18:23:37.011Z,45.87
2019-05-01T18:26:20.901Z,57.37
2019-05-01T18:29:05.736Z,50.30
2019-05-01T18:31:34.781Z,53.40
2019-05-01T18:34:05.176Z,80.00
2019-05-01T18:36:39.581Z,55.90
2019-05-01T18:39:17.271Z,35.33
2019-05-01T18:41:54.186Z,42.27
2019-05-01T18:44:24.381Z,33.17
2019-05-01T18:46:54.795Z,32.77
2019-05-01T18:49:25.145Z,31.40
2019-05-01T18:51:55.449Z,26.93
2019-05-01T18:54:25.667Z,23.30
2019-05-01T18:56:56.006Z,24.67
2019-05-01T18:59:26.150Z,23.13
2019-05-01T19:01:56.429Z,26.33
2019-05-01T19:04:26.676Z,26.77
2019-05-01T19:06:57.104Z,24.03
2019-05-01T19:09:30.249Z,27.57
2019-05-01T19:12:00.186Z,20.23
2019-05-01T19:14:30.929Z,17.87
2019-05-01T19:17:02.281Z,20.47
2019-05-01T19:19:33.537Z,13.97
2019-05-01T19:22:06.213Z,20.67
2019-05-01T19:24:38.111Z,21.83
2019-05-01T19:27:08.504Z,20.80
2019-05-01T19:29:39.975Z,20.20
2019-05-01T19:32:10.600Z,17.03
2019-05-01T19:34:41.048Z,12.87
2019-05-01T19:37:11.382Z,12.37
2019-05-01T19:39:43.737Z,19.60
2019-05-01T19:42:13.898Z,17.20
2019-05-01T19:44:44.202Z,14.13
2019-05-01T19:47:14.732Z,20.50
2019-05-01T19:49:45.037Z,17.40
2019-05-01T19:52:15.269Z,19.87
2019-05-01T19:54:45.497Z,18.30
2019-05-01T19:57:15.741Z,16.00
2019-05-01T19:59:45.960Z,11.93
2019-05-01T20:02:17.226Z,15.50
2019-05-01T20:04:50.550Z,13.20
2019-05-01T20:07:21.623Z,13.23
2019-05-01T20:09:57.072Z,17.60
2019-05-01T20:12:25.099Z,12.50
2019-05-01T20:14:56.403Z,11.03
2019-05-01T20:17:26.585Z,13.97
2019-05-01T20:19:56.796Z,12.13
2019-05-01T20:22:27.046Z,12.67
2019-05-01T20:24:57.430Z,10.43
2019-05-01T20:27:27.857Z,12.30
2019-05-01T20:29:58.151Z,11.77
2019-05-01T20:32:28.371Z,11.13
2019-05-01T20:34:59.455Z,8.70
2019-05-01T20:37:29.977Z,11.40
2019-05-01T20:40:10.979Z,12.77
2019-05-01T20:42:32.603Z,12.23
2019-05-01T20:45:05.439Z,13.60
2019-05-01T20:47:35.708Z,11.93
2019-05-01T20:50:09.655Z,9.67
2019-05-01T20:52:39.883Z,10.40
2019-05-01T20:55:10.127Z,12.37
2019-05-01T20:57:42.446Z,12.00
2019-05-01T21:00:16.653Z,8.70
2019-05-01T21:02:47.198Z,9.03
2019-05-01T21:05:25.987Z,11.40
2019-05-01T21:08:15.120Z,13.50
2019-05-01T21:10:56.849Z,7.80
2019-05-01T21:13:27.093Z,11.40
2019-05-01T21:16:01.867Z,8.00
2019-05-01T21:18:29.341Z,10.13
2019-05-01T21:20:59.671Z,11.80
2019-05-01T21:23:30.985Z,10.50
2019-05-01T21:26:01.118Z,10.80
2019-05-01T21:28:31.371Z,11.23
2019-05-01T21:31:03.667Z,15.70
2019-05-01T21:33:34.073Z,17.00
2019-05-01T21:36:08.329Z,23.77
2019-05-01T21:38:37.482Z,23.63
2019-05-01T21:41:08.779Z,40.77
2019-05-01T21:43:39.017Z,32.30
2019-05-01T21:46:09.306Z,30.23
2019-05-01T21:48:39.534Z,23.43
2019-05-01T21:51:09.801Z,19.33
2019-05-01T21:53:42.632Z,14.67
2019-05-01T21:56:11.973Z,15.10
2019-05-01T21:58:42.155Z,11.83
2019-05-01T22:01:12.311Z,16.13
2019-05-01T22:03:42.610Z,13.77
2019-05-01T22:06:15.398Z,12.97
2019-05-01T22:08:44.641Z,14.43
2019-05-01T22:11:14.730Z,12.10
2019-05-01T22:13:44.874Z,11.43
2019-05-01T22:16:22.419Z,13.63
2019-05-01T22:19:11.594Z,17.80
2019-05-01T22:22:09.491Z,12.10
2019-05-01T22:25:07.924Z,12.97
2019-05-01T22:27:41.881Z,9.97
2019-05-01T22:30:42.239Z,9.50
2019-05-01T22:33:13.370Z,10.43
2019-05-01T22:35:45.828Z,10.03
2019-05-01T22:38:16.113Z,10.30
2019-05-01T22:41:06.945Z,12.20
2019-05-01T22:43:35.981Z,11.03
2019-05-01T22:46:08.097Z,11.97
2019-05-01T22:48:38.339Z,11.80
2019-05-01T22:51:21.717Z,10.97
2019-05-01T22:53:55.057Z,13.00
2019-05-01T22:56:25.845Z,11.77
2019-05-01T22:58:56.190Z,12.20
2019-05-01T23:01:27.178Z,12.20
2019-05-01T23:04:12.141Z,14.20
2019-05-01T23:06:41.778Z,18.07
2019-05-01T23:09:12.914Z,17.03
2019-05-01T23:11:45.743Z,18.00
2019-05-01T23:14:17.072Z,15.60
2019-05-01T23:17:03.363Z,13.80
2019-05-01T23:19:32.290Z,15.33
2019-05-01T23:22:02.486Z,16.50
2019-05-01T23:24:32.705Z,15.60
2019-05-01T23:27:02.838Z,14.23
2019-05-01T23:29:33.013Z,16.27
2019-05-01T23:32:03.830Z,14.67
2019-05-01T23:34:34.433Z,15.53
2019-05-01T23:37:04.694Z,15.57
2019-05-01T23:39:40.250Z,17.97
2019-05-01T23:42:06.807Z,17.33
2019-05-01T23:44:38.246Z,13.67
2019-05-01T23:47:08.840Z,16.43
2019-05-01T23:49:39.007Z,17.63
2019-05-01T23:52:09.320Z,17.23
2019-05-01T23:54:42.051Z,15.90
2019-05-01T23:57:14.968Z,23.50
2019-05-01T23:59:44.145Z,19.87
